Time;durP1;ratioP1;P1;durP2;ratioP2;P2;SDS_P1;SDS_P2;PMS_P1;PMS_P2;Temp;Humidity;BMP_temperature;BMP_pressure;BME280_temperature;BME280_humidity;BME280_pressure;Samples;Min_cycle;Max_cycle;Signal;HPM_P1;HPM_P2
2022/09/27 00:01:13;;;;;;;2.35;1.70;;;;;;;-146.19;100.00;65364.44;10310211;28;20055;-51
2022/09/27 00:06:33;;;;;;;2.90;1.80;;;;;;;-146.19;100.00;65364.44;10298757;28;20062;-52
2022/09/27 00:11:53;;;;;;;3.22;1.73;;;;;;;-146.19;100.00;65364.44;10308624;28;20046;-53
2022/09/27 00:17:12;;;;;;;2.47;1.58;;;;;;;-146.19;100.00;65364.44;10298585;28;20065;-53
2022/09/27 00:22:31;;;;;;;2.38;1.52;;;;;;;-146.19;100.00;65364.44;10295740;28;20055;-52
2022/09/27 00:27:51;;;;;;;3.63;1.73;;;;;;;-146.19;100.00;65364.44;10305333;28;20074;-54
2022/09/27 00:33:10;;;;;;;2.45;1.48;;;;;;;-146.19;100.00;65364.44;10308879;28;20043;-52
2022/09/27 00:38:29;;;;;;;3.08;1.83;;;;;;;-146.19;100.00;65364.44;10295530;28;20063;-52
2022/09/27 00:43:55;;;;;;;1.85;1.30;;;;;;;-146.19;100.00;65364.44;10280615;28;20064;-53
2022/09/27 00:49:18;;;;;;;3.25;1.60;;;;;;;-146.19;100.00;65364.44;10294792;28;20082;-53
2022/09/27 00:54:40;;;;;;;3.08;1.80;;;;;;;-146.19;100.00;65364.44;10297715;28;20047;-52
2022/09/27 01:00:04;;;;;;;2.47;1.73;;;;;;;-146.19;100.00;65364.44;10294827;28;20050;-53
2022/09/27 01:05:26;;;;;;;3.08;1.65;;;;;;;-146.19;100.00;65364.44;10317887;28;20564;-60
2022/09/27 01:10:54;;;;;;;1.98;1.33;;;;;;;-146.19;100.00;65364.44;10307652;28;20058;-61
2022/09/27 01:16:17;;;;;;;2.22;1.50;;;;;;;-146.19;100.00;65364.44;10305087;28;20047;-61
2022/09/27 01:21:43;;;;;;;2.15;1.48;;;;;;;-146.19;100.00;65364.44;10317239;28;20043;-61
2022/09/27 01:27:19;;;;;;;1.60;1.33;;;;;;;-146.19;100.00;65364.44;10275981;28;20110;-61
2022/09/27 01:32:46;;;;;;;1.90;1.50;;;;;;;-146.19;100.00;65364.44;10267597;28;20050;-61
2022/09/27 01:38:22;;;;;;;2.13;1.40;;;;;;;-146.19;100.00;65364.44;10290055;28;20409;-61
2022/09/27 01:43:50;;;;;;;1.98;1.48;;;;;;;-146.19;100.00;65364.44;10291888;28;20097;-61
2022/09/27 01:49:20;;;;;;;1.92;1.35;;;;;;;-146.19;100.00;65364.44;10284293;28;20059;-61
2022/09/27 01:54:45;;;;;;;1.77;1.42;;;;;;;-146.19;100.00;65364.44;10290869;28;20415;-62
2022/09/27 02:00:21;;;;;;;1.55;1.10;;;;;;;-146.19;100.00;65364.44;10291576;28;20066;-61
2022/09/27 02:05:47;;;;;;;1.70;1.35;;;;;;;-146.19;100.00;65364.44;10295465;28;20434;-62
2022/09/27 02:11:19;;;;;;;1.25;1.13;;;;;;;-146.19;100.00;65364.44;10289571;28;20046;-61
2022/09/27 02:16:47;;;;;;;;;;;;;;;-146.19;100.00;65364.44;10267740;28;20062;-61
2022/09/27 02:22:37;;;;;;;1.52;1.23;;;;;;;-146.19;100.00;65364.44;10291043;28;20332;-61
2022/09/27 02:28:11;;;;;;;1.90;1.33;;;;;;;-146.19;100.00;65364.44;10284336;28;20051;-61
2022/09/27 02:33:42;;;;;;;2.00;1.40;;;;;;;-146.19;100.00;65364.44;10290865;28;20112;-61
2022/09/27 02:39:02;;;;;;;2.10;1.33;;;;;;;-146.19;100.00;65364.44;10277355;28;20058;-61
2022/09/27 02:44:25;;;;;;;2.20;1.30;;;;;;;-146.19;100.00;65364.44;10290202;28;20422;-61
2022/09/27 02:50:25;;;;;;;3.00;1.30;;;;;;;-146.19;100.00;65364.44;10282944;28;20502;-62
2022/09/27 02:56:20;;;;;;;1.25;1.15;;;;;;;-146.19;100.00;65364.44;10288744;28;20089;-61
2022/09/27 03:02:17;;;;;;;1.63;1.10;;;;;;;-146.19;100.00;65364.44;10322208;28;20049;-61
2022/09/27 03:08:12;;;;;;;2.20;1.30;;;;;;;-146.19;100.00;65364.44;10292872;28;20062;-61
2022/09/27 03:13:33;;;;;;;2.13;1.08;;;;;;;-146.19;100.00;65364.44;10321672;28;20100;-61
2022/09/27 03:18:53;;;;;;;2.08;1.20;;;;;;;-146.19;100.00;65364.44;10281806;28;20127;-61
2022/09/27 03:24:42;;;;;;;1.80;1.23;;;;;;;-146.19;100.00;65364.44;10257637;28;20077;-61
2022/09/27 03:30:03;;;;;;;1.10;0.90;;;;;;;-146.19;100.00;65364.44;10279379;28;20570;-60
2022/09/27 03:35:23;;;;;;;1.52;1.20;;;;;;;-146.19;100.00;65364.44;10293712;28;20059;-61
2022/09/27 03:40:43;;;;;;;1.58;1.20;;;;;;;-146.19;100.00;65364.44;10300877;28;20133;-61
2022/09/27 03:46:03;;;;;;;1.88;1.40;;;;;;;-146.19;100.00;65364.44;10281528;28;20046;-61
2022/09/27 03:51:23;;;;;;;2.45;1.15;;;;;;;-146.19;100.00;65364.44;10296357;28;20055;-61
2022/09/27 03:56:43;;;;;;;1.38;1.05;;;;;;;-146.19;100.00;65364.44;10282368;28;20143;-61
2022/09/27 04:02:04;;;;;;;2.60;1.23;;;;;;;-146.19;100.00;65364.44;10306331;28;20410;-60
2022/09/27 04:07:48;;;;;;;1.50;1.20;;;;;;;-146.19;100.00;65364.44;10306769;28;20055;-61
2022/09/27 04:13:08;;;;;;;1.85;1.10;;;;;;;-146.19;100.00;65364.44;10298436;28;20057;-61
2022/09/27 04:18:35;;;;;;;1.30;1.05;;;;;;;-146.19;100.00;65364.44;10306513;28;20077;-61
2022/09/27 04:24:10;;;;;;;1.33;0.90;;;;;;;-146.19;100.00;65364.44;10295825;28;20109;-61
2022/09/27 04:29:31;;;;;;;2.00;1.10;;;;;;;-146.19;100.00;65364.44;10269805;28;20137;-61
2022/09/27 04:40:34;;;;;;;1.13;1.00;;;;;;;-146.19;100.00;65364.44;10281012;28;20062;-61
2022/09/27 04:45:54;;;;;;;1.30;1.02;;;;;;;-146.19;100.00;65364.44;10308961;28;20304;-61
2022/09/27 04:51:18;;;;;;;1.20;1.00;;;;;;;-146.19;100.00;65364.44;10306616;28;20062;-60
2022/09/27 04:56:38;;;;;;;1.02;0.90;;;;;;;-146.19;100.00;65364.44;10310121;28;20046;-61
2022/09/27 05:01:59;;;;;;;2.00;1.10;;;;;;;-146.19;100.00;65364.44;10306696;28;20050;-60
2022/09/27 05:07:34;;;;;;;0.70;0.70;;;;;;;-146.19;100.00;65364.44;10297643;28;20051;-61
2022/09/27 05:12:58;;;;;;;1.40;0.90;;;;;;;-146.19;100.00;65364.44;10293169;28;20042;-61
2022/09/27 05:18:17;;;;;;;1.30;1.00;;;;;;;-146.19;100.00;65364.44;10325501;28;20546;-61
2022/09/27 05:23:56;;;;;;;1.17;0.90;;;;;;;-146.19;100.00;65364.44;10292165;28;20104;-61
2022/09/27 05:29:16;;;;;;;1.20;1.00;;;;;;;-146.19;100.00;65364.44;10277746;28;20066;-61
2022/09/27 05:34:42;;;;;;;1.08;0.93;;;;;;;-146.19;100.00;65364.44;10278932;28;20046;-61
2022/09/27 05:40:02;;;;;;;1.00;0.88;;;;;;;-146.19;100.00;65364.44;10313159;28;20113;-60
2022/09/27 05:45:22;;;;;;;1.10;1.00;;;;;;;-146.19;100.00;65364.44;10280820;28;20051;-61
2022/09/27 05:50:43;;;;;;;1.10;1.00;;;;;;;-146.19;100.00;65364.44;10287091;28;20054;-60
2022/09/27 05:56:03;;;;;;;1.10;1.00;;;;;;;-146.19;100.00;65364.44;10298925;28;20048;-61
2022/09/27 06:01:37;;;;;;;1.00;0.90;;;;;;;-146.19;100.00;65364.44;10311396;28;20046;-61
2022/09/27 06:07:15;;;;;;;0.95;0.88;;;;;;;-146.19;100.00;65364.44;10315650;28;20064;-61
2022/09/27 06:12:35;;;;;;;1.00;0.82;;;;;;;-146.19;100.00;65364.44;10278384;28;20138;-61
2022/09/27 06:18:25;;;;;;;1.05;0.85;;;;;;;-146.19;100.00;65364.44;10277947;28;20443;-60
2022/09/27 06:23:44;;;;;;;1.00;0.90;;;;;;;-146.19;100.00;65364.44;10290824;28;20078;-61
2022/09/27 06:29:12;;;;;;;2.70;0.90;;;;;;;-146.19;100.00;65364.44;10274720;28;20074;-61
2022/09/27 06:34:39;;;;;;;2.35;0.90;;;;;;;-146.19;100.00;65364.44;10283090;28;20093;-61
2022/09/27 06:39:58;;;;;;;1.45;1.00;;;;;;;-146.19;100.00;65364.44;10339863;28;20093;-61
2022/09/27 06:45:37;;;;;;;1.03;0.93;;;;;;;-146.19;100.00;65364.44;10304533;28;20379;-61
2022/09/27 06:51:15;;;;;;;1.23;0.90;;;;;;;-146.19;100.00;65364.44;10305022;28;20312;-61
2022/09/27 06:56:36;;;;;;;1.05;0.95;;;;;;;-146.19;100.00;65364.44;10295237;28;20055;-61
2022/09/27 07:01:56;;;;;;;1.33;0.85;;;;;;;-146.19;100.00;65364.44;10289217;28;20383;-57
2022/09/27 07:07:34;;;;;;;0.77;0.77;;;;;;;-146.19;100.00;65364.44;10320806;28;20038;-61
2022/09/27 07:12:57;;;;;;;0.98;0.80;;;;;;;-146.19;100.00;65364.44;10283949;28;20690;-61
2022/09/27 07:18:17;;;;;;;2.30;0.80;;;;;;;-146.19;100.00;65364.44;10297533;28;20201;-61
2022/09/27 07:23:38;;;;;;;1.02;0.82;;;;;;;-146.19;100.00;65364.44;10298408;28;20055;-61
2022/09/27 07:29:00;;;;;;;0.77;0.60;;;;;;;-146.19;100.00;65364.44;10289748;28;20137;-61
2022/09/27 07:34:21;;;;;;;0.82;0.75;;;;;;;-146.19;100.00;65364.44;10288690;28;20467;-61
2022/09/27 07:39:41;;;;;;;0.98;0.73;;;;;;;-146.19;100.00;65364.44;10313442;28;20098;-61
2022/09/27 07:45:00;;;;;;;2.05;0.90;;;;;;;-146.19;100.00;65364.44;10296848;28;20442;-61
2022/09/27 07:50:38;;;;;;;1.35;0.90;;;;;;;-146.19;100.00;65364.44;10299780;28;20054;-61
2022/09/27 07:56:32;;;;;;;1.17;0.90;;;;;;;-146.19;100.00;65364.44;10308093;28;20100;-60
2022/09/27 08:01:52;;;;;;;1.00;0.80;;;;;;;-146.19;100.00;65364.44;10278818;28;20449;-62
2022/09/27 08:07:13;;;;;;;2.33;0.65;;;;;;;-146.19;100.00;65364.44;10312331;28;20069;-61
2022/09/27 08:12:34;;;;;;;1.15;0.80;;;;;;;-146.19;100.00;65364.44;10296336;28;20047;-60
2022/09/27 08:17:54;;;;;;;1.05;0.77;;;;;;;-146.19;100.00;65364.44;10295337;28;20415;-60
2022/09/27 08:23:37;;;;;;;0.93;0.80;;;;;;;-146.19;100.00;65364.44;10273296;28;20406;-60
2022/09/27 08:29:28;;;;;;;0.77;0.77;;;;;;;-146.19;100.00;65364.44;10270280;28;20087;-60
2022/09/27 08:34:48;;;;;;;0.70;0.70;;;;;;;-146.19;100.00;65364.44;10296653;28;20069;-60
2022/09/27 08:40:09;;;;;;;0.80;0.80;;;;;;;-146.19;100.00;65364.44;10301151;28;20050;-60
2022/09/27 08:45:43;;;;;;;1.00;0.90;;;;;;;-146.19;100.00;65364.44;10252906;28;20047;-60
2022/09/27 08:51:04;;;;;;;3.20;0.90;;;;;;;-146.19;100.00;65364.44;10267724;28;20058;-61
2022/09/27 08:56:25;;;;;;;1.02;0.70;;;;;;;-146.19;100.00;65364.44;10296843;28;20065;-59
2022/09/27 09:01:44;;;;;;;0.90;0.80;;;;;;;-146.19;100.00;65364.44;10278550;28;20064;-60
2022/09/27 09:07:26;;;;;;;0.65;0.65;;;;;;;-146.19;100.00;65364.44;10280483;28;20055;-61
2022/09/27 09:12:45;;;;;;;1.00;0.90;;;;;;;-146.19;100.00;65364.44;10285088;28;20058;-60
2022/09/27 09:18:42;;;;;;;2.05;0.70;;;;;;;-146.19;100.00;65364.44;10298752;28;20422;-61
2022/09/27 09:24:45;;;;;;;2.88;1.48;;;;;;;-146.19;100.00;65364.44;10317278;28;20054;-60
2022/09/27 09:30:14;;;;;;;6.78;1.85;;;;;;;-146.19;100.00;65364.44;10278993;28;20070;-60
2022/09/27 09:35:46;;;;;;;3.20;1.42;;;;;;;-146.19;100.00;65364.44;10268469;28;20057;-60
2022/09/27 09:41:06;;;;;;;2.17;0.98;;;;;;;-146.19;100.00;65364.44;10299480;28;20062;-61
2022/09/27 09:46:34;;;;;;;1.83;1.00;;;;;;;-146.19;100.00;65364.44;10295700;28;20101;-61
2022/09/27 09:51:59;;;;;;;1.50;0.88;;;;;;;-146.19;100.00;65364.44;10264420;28;20065;-59
2022/09/27 09:57:29;;;;;;;3.03;1.00;;;;;;;-146.19;100.00;65364.44;10296846;28;20094;-61
2022/09/27 10:02:52;;;;;;;2.17;1.10;;;;;;;-146.19;100.00;65364.44;10261594;28;20049;-60
2022/09/27 10:08:19;;;;;;;1.33;0.80;;;;;;;-146.19;100.00;65364.44;10272435;28;20087;-61
2022/09/27 10:13:42;;;;;;;2.92;0.70;;;;;;;-146.19;100.00;65364.44;10266512;28;20062;-57
2022/09/27 10:19:03;;;;;;;1.48;0.93;;;;;;;-146.19;100.00;65364.44;10282959;28;20050;-60
2022/09/27 10:24:24;;;;;;;1.00;0.65;;;;;;;-146.19;100.00;65364.44;10277197;28;20051;-61
2022/09/27 10:29:57;;;;;;;1.33;0.70;;;;;;;-146.19;100.00;65364.44;10270038;28;20054;-60
2022/09/27 10:35:29;;;;;;;0.68;0.68;;;;;;;-146.19;100.00;65364.44;10282659;28;20050;-61
2022/09/27 10:40:55;;;;;;;1.23;0.70;;;;;;;-146.19;100.00;65364.44;10291021;28;20050;-61
2022/09/27 10:46:31;;;;;;;0.80;0.70;;;;;;;-146.19;100.00;65364.44;10275682;28;20051;-60
2022/09/27 10:52:17;;;;;;;0.93;0.75;;;;;;;-146.19;100.00;65364.44;10272232;28;20483;-61
2022/09/27 10:57:37;;;;;;;1.80;0.80;;;;;;;-146.19;100.00;65364.44;10279193;28;20082;-61
2022/09/27 11:03:14;;;;;;;1.27;0.80;;;;;;;-146.19;100.00;65364.44;10316210;28;20394;-60
2022/09/27 11:08:34;;;;;;;1.30;0.60;;;;;;;-146.19;100.00;65364.44;10285370;28;20061;-60
2022/09/27 11:14:03;;;;;;;0.68;0.60;;;;;;;-146.19;100.00;65364.44;10302260;28;20491;-60
2022/09/27 11:19:27;;;;;;;0.57;0.55;;;;;;;-146.19;100.00;65364.44;10295021;28;20058;-61
2022/09/27 11:25:17;;;;;;;0.60;0.60;;;;;;;-146.19;100.00;65364.44;10284161;28;20121;-60
2022/09/27 11:31:03;;;;;;;1.88;0.50;;;;;;;-146.19;100.00;65364.44;10297351;28;20490;-60
2022/09/27 11:36:54;;;;;;;1.08;0.55;;;;;;;-146.19;100.00;65364.44;10310726;28;20046;-61
2022/09/27 11:42:32;;;;;;;1.00;0.60;;;;;;;-146.19;100.00;65364.44;10269112;28;20058;-60
2022/09/27 11:48:21;;;;;;;0.98;0.60;;;;;;;-146.19;100.00;65364.44;10285400;28;20066;-60
2022/09/27 11:53:56;;;;;;;0.45;0.45;;;;;;;-146.19;100.00;65364.44;10280624;28;20043;-61
2022/09/27 11:59:36;;;;;;;1.02;0.50;;;;;;;-146.19;100.00;65364.44;10291013;28;20065;-60
2022/09/27 12:04:56;;;;;;;0.50;0.50;;;;;;;-146.19;100.00;65364.44;10282024;28;20055;-60
2022/09/27 12:10:17;;;;;;;1.85;0.52;;;;;;;-146.19;100.00;65364.44;10296188;28;20063;-60
2022/09/27 12:15:41;;;;;;;0.60;0.60;;;;;;;-146.19;100.00;65364.44;10278647;28;20383;-61
2022/09/27 12:21:02;;;;;;;0.88;0.60;;;;;;;-146.19;100.00;65364.44;10281472;28;21370;-60
2022/09/27 12:26:43;;;;;;;0.52;0.52;;;;;;;-146.19;100.00;65364.44;10280992;28;20507;-61
2022/09/27 12:32:44;;;;;;;1.05;0.52;;;;;;;-146.19;100.00;65364.44;10280578;28;20051;-60
2022/09/27 12:38:13;;;;;;;0.50;0.50;;;;;;;-146.19;100.00;65364.44;10295270;28;20071;-61
2022/09/27 12:43:34;;;;;;;0.93;0.50;;;;;;;-146.19;100.00;65364.44;10281303;28;20051;-59
2022/09/27 12:49:20;;;;;;;0.40;0.40;;;;;;;-146.19;100.00;65364.44;10280136;28;20118;-61
2022/09/27 12:54:52;;;;;;;0.50;0.50;;;;;;;-146.19;100.00;65364.44;10291160;28;20066;-60
2022/09/27 13:00:15;;;;;;;0.68;0.50;;;;;;;-146.19;100.00;65364.44;10307555;28;20121;-61
2022/09/27 13:05:44;;;;;;;0.43;0.43;;;;;;;-146.19;100.00;65364.44;10294939;28;20517;-60
2022/09/27 13:11:38;;;;;;;0.70;0.60;;;;;;;-146.19;100.00;65364.44;10286332;28;20051;-60
2022/09/27 13:16:58;;;;;;;0.90;0.52;;;;;;;-146.19;100.00;65364.44;10282487;28;20050;-60
2022/09/27 13:22:39;;;;;;;0.82;0.52;;;;;;;-146.19;100.00;65364.44;10291497;28;20051;-60
2022/09/27 13:28:31;;;;;;;0.40;0.40;;;;;;;-146.19;100.00;65364.44;10287582;28;20422;-60
2022/09/27 13:33:52;;;;;;;0.77;0.50;;;;;;;-146.19;100.00;65364.44;10290451;28;20051;-61
2022/09/27 13:39:19;;;;;;;0.50;0.40;;;;;;;-146.19;100.00;65364.44;10282288;28;20142;-61
2022/09/27 13:45:20;;;;;;;0.40;0.40;;;;;;;-146.19;100.00;65364.44;10299853;28;20080;-59
2022/09/27 13:50:55;;;;;;;0.40;0.40;;;;;;;-146.19;100.00;65364.44;10307998;28;20073;-61
2022/09/27 13:56:45;;;;;;;0.60;0.60;;;;;;;-146.19;100.00;65364.44;10283003;28;20047;-60
2022/09/27 14:02:25;;;;;;;2.15;0.70;;;;;;;-146.19;100.00;65364.44;10293485;28;20456;-60
2022/09/27 14:07:48;;;;;;;0.52;0.43;;;;;;;-146.19;100.00;65364.44;10264350;28;20112;-60
2022/09/27 14:13:13;;;;;;;0.88;0.50;;;;;;;-146.19;100.00;65364.44;10315904;28;20480;-62
2022/09/27 14:18:53;;;;;;;0.68;0.50;;;;;;;-146.19;100.00;65364.44;10280780;28;20073;-61
2022/09/27 14:24:23;;;;;;;1.13;0.40;;;;;;;-146.19;100.00;65364.44;10283823;28;20109;-60
2022/09/27 14:29:48;;;;;;;0.40;0.40;;;;;;;-146.19;100.00;65364.44;10284355;28;20054;-60
2022/09/27 14:40:58;;;;;;;;;;;;;;;-146.19;100.00;65364.44;10270650;28;19925;-60
2022/09/27 14:46:27;;;;;;;1.30;0.55;;;;;;;-146.19;100.00;65364.44;10286946;28;20452;-61
2022/09/27 14:51:54;;;;;;;0.50;0.40;;;;;;;-146.19;100.00;65364.44;10293597;28;20054;-60
2022/09/27 14:57:15;;;;;;;0.77;0.60;;;;;;;-146.19;100.00;65364.44;10293655;28;20475;-61
2022/09/27 15:02:37;;;;;;;1.25;0.47;;;;;;;-146.19;100.00;65364.44;10309851;28;20460;-61
2022/09/27 15:07:57;;;;;;;0.47;0.40;;;;;;;-146.19;100.00;65364.44;10334152;28;20461;-61
2022/09/27 15:13:18;;;;;;;0.77;0.40;;;;;;;-146.19;100.00;65364.44;10273239;28;20058;-61
2022/09/27 15:18:41;;;;;;;0.65;0.40;;;;;;;-146.19;100.00;65364.44;10299204;28;20110;-61
2022/09/27 15:24:01;;;;;;;0.57;0.47;;;;;;;-146.19;100.00;65364.44;10305712;28;20062;-60
2022/09/27 15:29:23;;;;;;;0.70;0.50;;;;;;;-146.19;100.00;65364.44;10288911;28;20054;-61
2022/09/27 15:34:43;;;;;;;1.00;0.40;;;;;;;-146.19;100.00;65364.44;10298081;28;20062;-55
2022/09/27 15:40:15;;;;;;;0.50;0.50;;;;;;;-146.19;100.00;65364.44;10316588;28;20041;-60
2022/09/27 15:45:35;;;;;;;0.60;0.60;;;;;;;-146.19;100.00;65364.44;10322228;28;20402;-60
2022/09/27 15:50:55;;;;;;;0.40;0.35;;;;;;;-146.19;100.00;65364.44;10302425;28;20063;-61
2022/09/27 15:56:14;;;;;;;0.45;0.40;;;;;;;-146.19;100.00;65364.44;10295336;28;20384;-61
2022/09/27 16:01:34;;;;;;;0.73;0.40;;;;;;;-146.19;100.00;65364.44;10291645;28;20435;-61
2022/09/27 16:06:53;;;;;;;0.60;0.43;;;;;;;-146.19;100.00;65364.44;10296888;28;20046;-61
2022/09/27 16:12:13;;;;;;;0.50;0.50;;;;;;;-146.19;100.00;65364.44;10308458;28;20043;-61
2022/09/27 16:17:36;;;;;;;0.40;0.40;;;;;;;-146.19;100.00;65364.44;10310073;28;20513;-59
2022/09/27 16:22:57;;;;;;;1.17;0.70;;;;;;;-146.19;100.00;65364.44;10302052;28;20051;-58
2022/09/27 16:28:16;;;;;;;0.85;0.57;;;;;;;-146.19;100.00;65364.44;10285938;28;20177;-61
2022/09/27 16:33:36;;;;;;;0.90;0.60;;;;;;;-146.19;100.00;65364.44;10287084;28;20047;-61
2022/09/27 16:38:56;;;;;;;2.05;0.80;;;;;;;-146.19;100.00;65364.44;10300040;28;20046;-59
2022/09/27 16:44:17;;;;;;;2.72;1.20;;;;;;;-146.19;100.00;65364.44;10317124;28;20434;-61
2022/09/27 16:55:19;;;;;;;7.18;1.77;;;;;;;-146.19;100.00;65364.44;10294620;28;20058;-61
2022/09/27 17:00:40;;;;;;;8.75;2.03;;;;;;;-146.19;100.00;65364.44;10307035;28;20058;-61
2022/09/27 17:06:01;;;;;;;12.43;2.33;;;;;;;-146.19;100.00;65364.44;10288417;28;20070;-60
2022/09/27 17:11:21;;;;;;;5.97;1.60;;;;;;;-146.19;100.00;65364.44;10293866;28;20058;-61
2022/09/27 17:16:42;;;;;;;4.25;1.52;;;;;;;-146.19;100.00;65364.44;10306733;28;20082;-61
2022/09/27 17:22:01;;;;;;;4.03;1.35;;;;;;;-146.19;100.00;65364.44;10292218;28;20528;-60
2022/09/27 17:27:20;;;;;;;6.53;1.88;;;;;;;-146.19;100.00;65364.44;10307577;28;20427;-60
2022/09/27 17:32:40;;;;;;;7.78;1.92;;;;;;;-146.19;100.00;65364.44;10295414;28;20689;-61
2022/09/27 17:37:59;;;;;;;5.28;1.98;;;;;;;-146.19;100.00;65364.44;10295424;28;20062;-60
2022/09/27 17:43:18;;;;;;;7.97;2.00;;;;;;;-146.19;100.00;65364.44;10292317;28;20046;-61
2022/09/27 17:54:18;;;;;;;7.60;2.00;;;;;;;-146.19;100.00;65364.44;10292699;28;20047;-60
2022/09/27 17:59:38;;;;;;;7.25;2.00;;;;;;;-146.19;100.00;65364.44;10279337;28;20290;-61
2022/09/27 18:04:57;;;;;;;6.00;1.73;;;;;;;-146.19;100.00;65364.44;10286440;28;20043;-60
2022/09/27 18:10:17;;;;;;;7.38;2.00;;;;;;;-146.19;100.00;65364.44;10299413;28;20113;-60
2022/09/27 18:15:37;;;;;;;6.25;2.00;;;;;;;-146.19;100.00;65364.44;10294876;28;20055;-60
2022/09/27 18:21:02;;;;;;;6.28;2.22;;;;;;;-146.19;100.00;65364.44;10293696;28;20055;-61
2022/09/27 18:26:23;;;;;;;4.05;1.65;;;;;;;-146.19;100.00;65364.44;10315149;28;20046;-60
2022/09/27 18:31:43;;;;;;;6.30;1.85;;;;;;;-146.19;100.00;65364.44;10308999;28;20121;-61
2022/09/27 18:37:02;;;;;;;6.70;2.13;;;;;;;-146.19;100.00;65364.44;10305267;28;20596;-61
2022/09/27 18:42:21;;;;;;;7.22;2.30;;;;;;;-146.19;100.00;65364.44;10317628;28;20131;-60
2022/09/27 18:47:41;;;;;;;5.00;1.85;;;;;;;-146.19;100.00;65364.44;10299336;28;20054;-60
2022/09/27 18:53:01;;;;;;;5.97;2.00;;;;;;;-146.19;100.00;65364.44;10317705;28;20054;-60
2022/09/27 18:58:20;;;;;;;4.22;1.70;;;;;;;-146.19;100.00;65364.44;10286849;28;20074;-61
2022/09/27 19:03:41;;;;;;;5.28;1.88;;;;;;;-146.19;100.00;65364.44;10298105;28;20621;-60
2022/09/27 19:09:02;;;;;;;5.72;1.90;;;;;;;-146.19;100.00;65364.44;10315756;28;20043;-60
2022/09/27 19:14:22;;;;;;;3.63;1.70;;;;;;;-146.19;100.00;65364.44;10298719;28;20043;-61
2022/09/27 19:19:41;;;;;;;4.82;1.63;;;;;;;-146.19;100.00;65364.44;10320822;28;20054;-60
2022/09/27 19:25:01;;;;;;;4.88;1.52;;;;;;;-146.19;100.00;65364.44;10300785;28;20069;-60
2022/09/27 19:30:20;;;;;;;3.95;1.58;;;;;;;-146.19;100.00;65364.44;10297905;28;20077;-61
2022/09/27 19:35:40;;;;;;;3.47;1.42;;;;;;;-146.19;100.00;65364.44;10310563;28;20042;-60
2022/09/27 19:41:00;;;;;;;4.40;1.65;;;;;;;-146.19;100.00;65364.44;10306267;28;20185;-60
2022/09/27 19:46:21;;;;;;;3.42;1.30;;;;;;;-146.19;100.00;65364.44;10297377;28;20051;-60
2022/09/27 19:51:40;;;;;;;3.05;1.40;;;;;;;-146.19;100.00;65364.44;10296718;28;20067;-61
2022/09/27 19:57:00;;;;;;;4.03;1.60;;;;;;;-146.19;100.00;65364.44;10296859;28;20047;-60
2022/09/27 20:02:19;;;;;;;3.63;1.67;;;;;;;-146.19;100.00;65364.44;10312250;28;20066;-60
2022/09/27 20:07:38;;;;;;;4.22;1.50;;;;;;;-146.19;100.00;65364.44;10297197;28;20050;-60
2022/09/27 20:12:58;;;;;;;2.75;1.52;;;;;;;-146.19;100.00;65364.44;10295862;28;20042;-60
2022/09/27 20:18:18;;;;;;;3.38;1.50;;;;;;;-146.19;100.00;65364.44;10299331;28;20101;-60
2022/09/27 20:23:37;;;;;;;2.50;1.15;;;;;;;-146.19;100.00;65364.44;10298673;28;20051;-60
2022/09/27 20:28:58;;;;;;;2.90;1.38;;;;;;;-146.19;100.00;65364.44;10313563;28;20054;-60
2022/09/27 20:34:18;;;;;;;2.85;1.17;;;;;;;-146.19;100.00;65364.44;10295713;28;20455;-60
2022/09/27 20:39:37;;;;;;;3.20;1.30;;;;;;;-146.19;100.00;65364.44;10285286;28;20062;-60
2022/09/27 20:44:56;;;;;;;2.60;1.40;;;;;;;-146.19;100.00;65364.44;10295287;28;20400;-60
2022/09/27 20:50:16;;;;;;;2.97;1.40;;;;;;;-146.19;100.00;65364.44;10302118;28;20055;-60
2022/09/27 20:55:36;;;;;;;2.78;1.23;;;;;;;-146.19;100.00;65364.44;10294111;28;20427;-59
2022/09/27 21:00:56;;;;;;;5.05;1.52;;;;;;;-146.19;100.00;65364.44;10294410;28;20514;-60
2022/09/27 21:06:15;;;;;;;2.47;1.10;;;;;;;-146.19;100.00;65364.44;10294133;28;20051;-58
2022/09/27 21:11:35;;;;;;;2.50;1.17;;;;;;;-146.19;100.00;65364.44;10301614;28;20053;-59
2022/09/27 21:16:54;;;;;;;1.88;1.10;;;;;;;-146.19;100.00;65364.44;10306706;28;20125;-60
2022/09/27 21:22:14;;;;;;;3.38;1.45;;;;;;;-146.19;100.00;65364.44;10307193;28;20116;-59
2022/09/27 21:27:33;;;;;;;3.38;1.30;;;;;;;-146.19;100.00;65364.44;10284776;28;20051;-59
2022/09/27 21:32:56;;;;;;;3.25;1.30;;;;;;;-146.19;100.00;65364.44;10290678;28;20051;-60
2022/09/27 21:38:16;;;;;;;2.47;1.08;;;;;;;-146.19;100.00;65364.44;10306263;28;20059;-59
2022/09/27 21:43:38;;;;;;;2.72;1.30;;;;;;;-146.19;100.00;65364.44;10303394;28;20101;-60
2022/09/27 21:49:00;;;;;;;1.65;1.15;;;;;;;-146.19;100.00;65364.44;10301714;28;20042;-60
2022/09/27 21:54:19;;;;;;;2.08;0.93;;;;;;;-146.19;100.00;65364.44;10306918;28;20066;-60
2022/09/27 21:59:39;;;;;;;2.05;1.20;;;;;;;-146.19;100.00;65364.44;10293074;28;20125;-59
2022/09/27 22:04:58;;;;;;;2.25;1.10;;;;;;;-146.19;100.00;65364.44;10307560;28;20042;-59
2022/09/27 22:10:18;;;;;;;1.27;0.90;;;;;;;-146.19;100.00;65364.44;10282679;28;20537;-59
2022/09/27 22:15:37;;;;;;;2.22;1.20;;;;;;;-146.19;100.00;65364.44;10324242;28;20181;-60
2022/09/27 22:21:01;;;;;;;1.85;1.15;;;;;;;-146.19;100.00;65364.44;10306107;28;20054;-59
2022/09/27 22:26:23;;;;;;;2.67;1.10;;;;;;;-146.19;100.00;65364.44;10321564;28;20039;-60
2022/09/27 22:31:42;;;;;;;3.17;1.10;;;;;;;-146.19;100.00;65364.44;10291457;28;20426;-60
2022/09/27 22:37:02;;;;;;;1.20;0.90;;;;;;;-146.19;100.00;65364.44;10304333;28;20050;-60
2022/09/27 22:42:22;;;;;;;2.97;1.25;;;;;;;-146.19;100.00;65364.44;10294350;28;20445;-60
2022/09/27 22:47:41;;;;;;;1.27;0.98;;;;;;;-146.19;100.00;65364.44;10296936;28;20066;-60
2022/09/27 22:53:00;;;;;;;1.58;0.90;;;;;;;-146.19;100.00;65364.44;10317528;28;20046;-60
2022/09/27 22:58:19;;;;;;;2.88;1.10;;;;;;;-146.19;100.00;65364.44;10317067;28;20055;-59
2022/09/27 23:03:39;;;;;;;1.70;0.90;;;;;;;-146.19;100.00;65364.44;10293837;28;20050;-59
2022/09/27 23:09:00;;;;;;;2.08;1.00;;;;;;;-146.19;100.00;65364.44;10289912;28;20066;-60
2022/09/27 23:14:20;;;;;;;1.33;1.00;;;;;;;-146.19;100.00;65364.44;10290945;28;20072;-59
2022/09/27 23:19:40;;;;;;;1.95;1.02;;;;;;;-146.19;100.00;65364.44;10294858;28;20490;-60
2022/09/27 23:25:00;;;;;;;2.72;1.05;;;;;;;-146.19;100.00;65364.44;10298512;28;20050;-60
2022/09/27 23:30:20;;;;;;;1.42;0.88;;;;;;;-146.19;100.00;65364.44;10298147;28;20058;-60
2022/09/27 23:35:39;;;;;;;2.42;1.00;;;;;;;-146.19;100.00;65364.44;10283495;28;20061;-60
2022/09/27 23:40:59;;;;;;;1.50;0.88;;;;;;;-146.19;100.00;65364.44;10299803;28;20543;-59
2022/09/27 23:46:19;;;;;;;1.90;1.02;;;;;;;-146.19;100.00;65364.44;10321042;28;20061;-60
2022/09/27 23:51:41;;;;;;;2.10;1.00;;;;;;;-146.19;100.00;65364.44;10294471;28;20069;-59
2022/09/27 23:57:01;;;;;;;2.25;1.20;;;;;;;-146.19;100.00;65364.44;10302710;28;20058;-60
